sensor_id;sensor_type;location;lat;lon;timestamp;temperature;humidity
65692;DHT22;52411;52.716;6.696;2023-04-24T00:00:19;10.70;99.90
65692;DHT22;52411;52.716;6.696;2023-04-24T00:02:45;10.70;99.90
65692;DHT22;52411;52.716;6.696;2023-04-24T00:05:14;10.70;99.90
65692;DHT22;52411;52.716;6.696;2023-04-24T00:07:43;10.60;99.90
65692;DHT22;52411;52.716;6.696;2023-04-24T00:10:09;10.60;99.90
65692;DHT22;52411;52.716;6.696;2023-04-24T00:12:35;10.60;99.90
65692;DHT22;52411;52.716;6.696;2023-04-24T00:15:01;10.60;99.90
65692;DHT22;52411;52.716;6.696;2023-04-24T00:17:26;10.50;99.90
65692;DHT22;52411;52.716;6.696;2023-04-24T00:19:52;10.50;99.90
65692;DHT22;52411;52.716;6.696;2023-04-24T00:22:27;10.50;99.90
65692;DHT22;52411;52.716;6.696;2023-04-24T00:24:53;10.40;99.90
65692;DHT22;52411;52.716;6.696;2023-04-24T00:27:18;10.40;99.90
65692;DHT22;52411;52.716;6.696;2023-04-24T00:29:44;10.30;99.90
65692;DHT22;52411;52.716;6.696;2023-04-24T00:32:09;10.30;99.90
65692;DHT22;52411;52.716;6.696;2023-04-24T00:34:35;10.20;99.90
65692;DHT22;52411;52.716;6.696;2023-04-24T00:37:00;10.20;99.90
65692;DHT22;52411;52.716;6.696;2023-04-24T00:39:26;10.20;99.90
65692;DHT22;52411;52.716;6.696;2023-04-24T00:41:51;10.10;99.90
65692;DHT22;52411;52.716;6.696;2023-04-24T00:44:17;10.00;99.90
65692;DHT22;52411;52.716;6.696;2023-04-24T00:46:43;10.00;99.90
65692;DHT22;52411;52.716;6.696;2023-04-24T00:49:08;9.90;99.90
65692;DHT22;52411;52.716;6.696;2023-04-24T00:51:34;9.90;99.90
65692;DHT22;52411;52.716;6.696;2023-04-24T00:54:00;9.90;99.90
65692;DHT22;52411;52.716;6.696;2023-04-24T00:56:26;9.90;99.90
65692;DHT22;52411;52.716;6.696;2023-04-24T00:58:52;9.90;99.90
65692;DHT22;52411;52.716;6.696;2023-04-24T01:01:20;9.90;99.90
65692;DHT22;52411;52.716;6.696;2023-04-24T01:03:46;9.90;99.90
65692;DHT22;52411;52.716;6.696;2023-04-24T01:06:12;9.90;99.90
65692;DHT22;52411;52.716;6.696;2023-04-24T01:08:38;9.80;99.90
65692;DHT22;52411;52.716;6.696;2023-04-24T01:11:03;9.80;99.90
65692;DHT22;52411;52.716;6.696;2023-04-24T01:13:29;9.80;99.90
65692;DHT22;52411;52.716;6.696;2023-04-24T01:15:56;9.80;99.90
65692;DHT22;52411;52.716;6.696;2023-04-24T01:18:21;9.80;99.90
65692;DHT22;52411;52.716;6.696;2023-04-24T01:20:47;9.80;99.90
65692;DHT22;52411;52.716;6.696;2023-04-24T01:23:14;9.80;99.90
65692;DHT22;52411;52.716;6.696;2023-04-24T01:25:40;9.80;99.90
65692;DHT22;52411;52.716;6.696;2023-04-24T01:28:06;9.80;99.90
65692;DHT22;52411;52.716;6.696;2023-04-24T01:30:31;9.70;99.90
65692;DHT22;52411;52.716;6.696;2023-04-24T01:32:57;9.80;99.90
65692;DHT22;52411;52.716;6.696;2023-04-24T01:35:23;9.70;99.90
65692;DHT22;52411;52.716;6.696;2023-04-24T01:37:49;9.70;99.90
65692;DHT22;52411;52.716;6.696;2023-04-24T01:40:15;9.70;99.90
65692;DHT22;52411;52.716;6.696;2023-04-24T01:42:40;9.70;99.90
65692;DHT22;52411;52.716;6.696;2023-04-24T01:45:06;9.70;99.90
65692;DHT22;52411;52.716;6.696;2023-04-24T01:47:33;9.60;99.90
65692;DHT22;52411;52.716;6.696;2023-04-24T01:49:58;9.60;99.90
65692;DHT22;52411;52.716;6.696;2023-04-24T01:52:24;9.60;99.90
65692;DHT22;52411;52.716;6.696;2023-04-24T01:54:50;9.60;99.90
65692;DHT22;52411;52.716;6.696;2023-04-24T01:57:16;9.60;99.90
65692;DHT22;52411;52.716;6.696;2023-04-24T01:59:41;9.60;99.90
65692;DHT22;52411;52.716;6.696;2023-04-24T02:02:06;9.60;99.90
65692;DHT22;52411;52.716;6.696;2023-04-24T02:04:32;9.60;99.90
65692;DHT22;52411;52.716;6.696;2023-04-24T02:06:57;9.60;99.90
65692;DHT22;52411;52.716;6.696;2023-04-24T02:09:23;9.50;99.90
65692;DHT22;52411;52.716;6.696;2023-04-24T02:11:48;9.50;99.90
65692;DHT22;52411;52.716;6.696;2023-04-24T02:14:14;9.60;99.90
65692;DHT22;52411;52.716;6.696;2023-04-24T02:16:39;9.60;99.90
65692;DHT22;52411;52.716;6.696;2023-04-24T02:19:05;9.60;99.90
65692;DHT22;52411;52.716;6.696;2023-04-24T02:21:31;9.60;99.90
65692;DHT22;52411;52.716;6.696;2023-04-24T02:23:56;9.60;99.90
65692;DHT22;52411;52.716;6.696;2023-04-24T02:26:22;9.70;99.90
65692;DHT22;52411;52.716;6.696;2023-04-24T02:28:47;9.70;99.90
65692;DHT22;52411;52.716;6.696;2023-04-24T02:31:13;9.60;99.90
65692;DHT22;52411;52.716;6.696;2023-04-24T02:33:39;9.70;99.90
65692;DHT22;52411;52.716;6.696;2023-04-24T02:36:05;9.60;99.90
65692;DHT22;52411;52.716;6.696;2023-04-24T02:38:30;9.60;99.90
65692;DHT22;52411;52.716;6.696;2023-04-24T02:40:56;9.60;99.90
65692;DHT22;52411;52.716;6.696;2023-04-24T02:43:21;9.60;99.90
65692;DHT22;52411;52.716;6.696;2023-04-24T02:45:47;9.50;99.90
65692;DHT22;52411;52.716;6.696;2023-04-24T02:48:12;9.50;99.90
65692;DHT22;52411;52.716;6.696;2023-04-24T02:50:37;9.40;99.90
65692;DHT22;52411;52.716;6.696;2023-04-24T02:53:03;9.40;99.90
65692;DHT22;52411;52.716;6.696;2023-04-24T02:55:28;9.40;99.90
65692;DHT22;52411;52.716;6.696;2023-04-24T02:57:54;9.40;99.90
65692;DHT22;52411;52.716;6.696;2023-04-24T03:00:20;9.40;99.90
65692;DHT22;52411;52.716;6.696;2023-04-24T03:02:45;9.40;99.90
65692;DHT22;52411;52.716;6.696;2023-04-24T03:05:11;9.40;99.90
65692;DHT22;52411;52.716;6.696;2023-04-24T03:07:37;9.40;99.90
65692;DHT22;52411;52.716;6.696;2023-04-24T03:10:03;9.40;99.90
65692;DHT22;52411;52.716;6.696;2023-04-24T03:12:30;9.40;99.90
65692;DHT22;52411;52.716;6.696;2023-04-24T03:14:55;9.30;99.90
65692;DHT22;52411;52.716;6.696;2023-04-24T03:17:21;9.30;99.90
65692;DHT22;52411;52.716;6.696;2023-04-24T03:19:46;9.30;99.90
65692;DHT22;52411;52.716;6.696;2023-04-24T03:22:12;9.40;99.90
65692;DHT22;52411;52.716;6.696;2023-04-24T03:24:37;9.40;99.90
65692;DHT22;52411;52.716;6.696;2023-04-24T03:27:03;9.40;99.90
65692;DHT22;52411;52.716;6.696;2023-04-24T03:29:28;9.30;99.90
65692;DHT22;52411;52.716;6.696;2023-04-24T03:31:54;9.30;99.90
65692;DHT22;52411;52.716;6.696;2023-04-24T03:34:19;9.30;99.90
65692;DHT22;52411;52.716;6.696;2023-04-24T03:36:45;9.30;99.90
65692;DHT22;52411;52.716;6.696;2023-04-24T03:39:13;9.30;99.90
65692;DHT22;52411;52.716;6.696;2023-04-24T03:41:38;9.30;99.90
65692;DHT22;52411;52.716;6.696;2023-04-24T03:44:03;9.30;99.90
65692;DHT22;52411;52.716;6.696;2023-04-24T03:46:29;9.40;99.90
65692;DHT22;52411;52.716;6.696;2023-04-24T03:48:55;9.30;99.90
65692;DHT22;52411;52.716;6.696;2023-04-24T03:51:20;9.40;99.90
65692;DHT22;52411;52.716;6.696;2023-04-24T03:53:46;9.40;99.90
65692;DHT22;52411;52.716;6.696;2023-04-24T03:56:11;9.30;99.90
65692;DHT22;52411;52.716;6.696;2023-04-24T03:58:37;9.30;99.90
65692;DHT22;52411;52.716;6.696;2023-04-24T04:01:02;9.30;99.90
65692;DHT22;52411;52.716;6.696;2023-04-24T04:03:28;9.30;99.90
65692;DHT22;52411;52.716;6.696;2023-04-24T04:05:53;9.30;99.90
65692;DHT22;52411;52.716;6.696;2023-04-24T04:08:19;9.30;99.90
65692;DHT22;52411;52.716;6.696;2023-04-24T04:10:45;9.30;99.90
65692;DHT22;52411;52.716;6.696;2023-04-24T04:13:10;9.30;99.90
65692;DHT22;52411;52.716;6.696;2023-04-24T04:15:36;9.30;99.90
65692;DHT22;52411;52.716;6.696;2023-04-24T04:18:01;9.30;99.90
65692;DHT22;52411;52.716;6.696;2023-04-24T04:20:27;9.30;99.90
65692;DHT22;52411;52.716;6.696;2023-04-24T04:22:52;9.30;99.90
65692;DHT22;52411;52.716;6.696;2023-04-24T04:25:18;9.40;99.90
65692;DHT22;52411;52.716;6.696;2023-04-24T04:27:45;9.30;99.90
65692;DHT22;52411;52.716;6.696;2023-04-24T04:30:11;9.30;99.90
65692;DHT22;52411;52.716;6.696;2023-04-24T04:32:36;9.30;99.90
65692;DHT22;52411;52.716;6.696;2023-04-24T04:35:02;9.30;99.90
65692;DHT22;52411;52.716;6.696;2023-04-24T04:37:29;9.20;99.90
65692;DHT22;52411;52.716;6.696;2023-04-24T04:39:54;9.30;99.90
65692;DHT22;52411;52.716;6.696;2023-04-24T04:42:20;9.30;99.90
65692;DHT22;52411;52.716;6.696;2023-04-24T04:44:45;9.30;99.90
65692;DHT22;52411;52.716;6.696;2023-04-24T04:47:11;9.30;99.90
65692;DHT22;52411;52.716;6.696;2023-04-24T04:49:40;9.30;99.90
65692;DHT22;52411;52.716;6.696;2023-04-24T04:52:06;9.30;99.90
65692;DHT22;52411;52.716;6.696;2023-04-24T04:54:31;9.30;99.90
65692;DHT22;52411;52.716;6.696;2023-04-24T04:56:57;9.30;99.90
65692;DHT22;52411;52.716;6.696;2023-04-24T04:59:23;9.30;99.90
65692;DHT22;52411;52.716;6.696;2023-04-24T05:01:48;9.30;99.90
65692;DHT22;52411;52.716;6.696;2023-04-24T05:04:14;9.30;99.90
65692;DHT22;52411;52.716;6.696;2023-04-24T05:06:39;9.30;99.90
65692;DHT22;52411;52.716;6.696;2023-04-24T05:09:05;9.30;99.90
65692;DHT22;52411;52.716;6.696;2023-04-24T05:11:30;9.30;99.90
65692;DHT22;52411;52.716;6.696;2023-04-24T05:13:56;9.30;99.90
65692;DHT22;52411;52.716;6.696;2023-04-24T05:16:21;9.30;99.90
65692;DHT22;52411;52.716;6.696;2023-04-24T05:18:47;9.30;99.90
65692;DHT22;52411;52.716;6.696;2023-04-24T05:21:12;9.30;99.90
65692;DHT22;52411;52.716;6.696;2023-04-24T05:23:38;9.30;99.90
65692;DHT22;52411;52.716;6.696;2023-04-24T05:26:03;9.30;99.90
65692;DHT22;52411;52.716;6.696;2023-04-24T05:28:29;9.30;99.90
65692;DHT22;52411;52.716;6.696;2023-04-24T05:30:54;9.30;99.90
65692;DHT22;52411;52.716;6.696;2023-04-24T05:33:24;9.30;99.90
65692;DHT22;52411;52.716;6.696;2023-04-24T05:35:50;9.30;99.90
65692;DHT22;52411;52.716;6.696;2023-04-24T05:38:15;9.30;99.90
65692;DHT22;52411;52.716;6.696;2023-04-24T05:40:45;9.30;99.90
65692;DHT22;52411;52.716;6.696;2023-04-24T05:43:10;9.30;99.90
65692;DHT22;52411;52.716;6.696;2023-04-24T05:45:36;9.30;99.90
65692;DHT22;52411;52.716;6.696;2023-04-24T05:48:02;9.30;99.90
65692;DHT22;52411;52.716;6.696;2023-04-24T05:50:27;9.30;99.90
65692;DHT22;52411;52.716;6.696;2023-04-24T05:52:53;9.30;99.90
65692;DHT22;52411;52.716;6.696;2023-04-24T05:55:19;9.30;99.90
65692;DHT22;52411;52.716;6.696;2023-04-24T05:57:44;9.30;99.90
65692;DHT22;52411;52.716;6.696;2023-04-24T06:00:11;9.30;99.90
65692;DHT22;52411;52.716;6.696;2023-04-24T06:02:37;9.30;99.90
65692;DHT22;52411;52.716;6.696;2023-04-24T06:05:03;9.30;99.90
65692;DHT22;52411;52.716;6.696;2023-04-24T06:07:30;9.30;99.90
65692;DHT22;52411;52.716;6.696;2023-04-24T06:09:56;9.30;99.90
65692;DHT22;52411;52.716;6.696;2023-04-24T06:12:22;9.20;99.90
65692;DHT22;52411;52.716;6.696;2023-04-24T06:14:47;9.30;99.90
65692;DHT22;52411;52.716;6.696;2023-04-24T06:17:13;9.30;99.90
65692;DHT22;52411;52.716;6.696;2023-04-24T06:19:38;9.20;99.90
65692;DHT22;52411;52.716;6.696;2023-04-24T06:22:04;9.20;99.90
65692;DHT22;52411;52.716;6.696;2023-04-24T06:24:29;9.20;99.90
65692;DHT22;52411;52.716;6.696;2023-04-24T06:26:55;9.20;99.90
65692;DHT22;52411;52.716;6.696;2023-04-24T06:29:22;9.20;99.90
65692;DHT22;52411;52.716;6.696;2023-04-24T06:31:47;9.20;99.90
65692;DHT22;52411;52.716;6.696;2023-04-24T06:34:13;9.20;99.90
65692;DHT22;52411;52.716;6.696;2023-04-24T06:36:39;9.20;99.90
65692;DHT22;52411;52.716;6.696;2023-04-24T06:39:04;9.20;99.90
65692;DHT22;52411;52.716;6.696;2023-04-24T06:41:30;9.20;99.90
65692;DHT22;52411;52.716;6.696;2023-04-24T06:43:55;9.10;99.90
65692;DHT22;52411;52.716;6.696;2023-04-24T06:46:21;9.20;99.90
65692;DHT22;52411;52.716;6.696;2023-04-24T06:48:51;9.20;99.90
65692;DHT22;52411;52.716;6.696;2023-04-24T06:51:17;9.20;99.90
65692;DHT22;52411;52.716;6.696;2023-04-24T06:53:43;9.20;99.90
65692;DHT22;52411;52.716;6.696;2023-04-24T06:56:09;9.20;99.90
65692;DHT22;52411;52.716;6.696;2023-04-24T06:58:34;9.30;99.90
65692;DHT22;52411;52.716;6.696;2023-04-24T07:01:00;9.30;99.90
65692;DHT22;52411;52.716;6.696;2023-04-24T07:03:25;9.20;99.90
65692;DHT22;52411;52.716;6.696;2023-04-24T07:05:51;9.30;99.90
65692;DHT22;52411;52.716;6.696;2023-04-24T07:08:16;9.30;99.90
65692;DHT22;52411;52.716;6.696;2023-04-24T07:10:43;9.30;99.90
65692;DHT22;52411;52.716;6.696;2023-04-24T07:13:09;9.40;99.90
65692;DHT22;52411;52.716;6.696;2023-04-24T07:15:34;9.40;99.90
65692;DHT22;52411;52.716;6.696;2023-04-24T07:18:00;9.40;99.90
65692;DHT22;52411;52.716;6.696;2023-04-24T07:20:25;9.50;99.90
65692;DHT22;52411;52.716;6.696;2023-04-24T07:22:51;9.50;99.90
65692;DHT22;52411;52.716;6.696;2023-04-24T07:25:17;9.60;99.90
65692;DHT22;52411;52.716;6.696;2023-04-24T07:27:42;9.70;99.90
65692;DHT22;52411;52.716;6.696;2023-04-24T07:30:08;9.80;99.90
65692;DHT22;52411;52.716;6.696;2023-04-24T07:32:34;9.80;99.90
65692;DHT22;52411;52.716;6.696;2023-04-24T07:35:00;9.80;99.90
65692;DHT22;52411;52.716;6.696;2023-04-24T07:37:25;9.80;99.90
65692;DHT22;52411;52.716;6.696;2023-04-24T07:39:51;9.80;99.90
65692;DHT22;52411;52.716;6.696;2023-04-24T07:42:17;9.80;99.90
65692;DHT22;52411;52.716;6.696;2023-04-24T07:44:42;9.80;99.90
65692;DHT22;52411;52.716;6.696;2023-04-24T07:47:07;9.80;99.90
65692;DHT22;52411;52.716;6.696;2023-04-24T07:49:33;9.80;99.90
65692;DHT22;52411;52.716;6.696;2023-04-24T07:52:00;9.80;99.90
65692;DHT22;52411;52.716;6.696;2023-04-24T07:54:27;9.80;99.90
65692;DHT22;52411;52.716;6.696;2023-04-24T07:56:52;9.90;99.90
65692;DHT22;52411;52.716;6.696;2023-04-24T07:59:18;9.90;99.90
65692;DHT22;52411;52.716;6.696;2023-04-24T08:01:43;9.90;99.90
65692;DHT22;52411;52.716;6.696;2023-04-24T08:04:09;9.90;99.90
65692;DHT22;52411;52.716;6.696;2023-04-24T08:06:34;9.90;99.90
65692;DHT22;52411;52.716;6.696;2023-04-24T08:09:00;10.00;99.90
65692;DHT22;52411;52.716;6.696;2023-04-24T08:11:26;10.00;99.90
65692;DHT22;52411;52.716;6.696;2023-04-24T08:13:51;10.00;99.90
65692;DHT22;52411;52.716;6.696;2023-04-24T08:16:17;10.00;99.90
65692;DHT22;52411;52.716;6.696;2023-04-24T08:18:42;10.00;99.90
65692;DHT22;52411;52.716;6.696;2023-04-24T08:21:08;10.00;99.90
65692;DHT22;52411;52.716;6.696;2023-04-24T08:23:33;10.00;99.90
65692;DHT22;52411;52.716;6.696;2023-04-24T08:25:59;10.00;99.90
65692;DHT22;52411;52.716;6.696;2023-04-24T08:28:24;10.00;99.90
65692;DHT22;52411;52.716;6.696;2023-04-24T08:30:50;10.00;99.90
65692;DHT22;52411;52.716;6.696;2023-04-24T08:33:20;10.00;99.90
65692;DHT22;52411;52.716;6.696;2023-04-24T08:35:45;10.00;99.90
65692;DHT22;52411;52.716;6.696;2023-04-24T08:38:11;10.00;99.90
65692;DHT22;52411;52.716;6.696;2023-04-24T08:40:36;10.00;99.90
65692;DHT22;52411;52.716;6.696;2023-04-24T08:43:02;9.90;99.90
65692;DHT22;52411;52.716;6.696;2023-04-24T08:45:28;9.90;99.90
65692;DHT22;52411;52.716;6.696;2023-04-24T08:47:54;9.90;99.90
65692;DHT22;52411;52.716;6.696;2023-04-24T08:50:20;9.80;99.90
65692;DHT22;52411;52.716;6.696;2023-04-24T08:52:46;9.80;99.90
65692;DHT22;52411;52.716;6.696;2023-04-24T08:55:12;9.90;99.90
65692;DHT22;52411;52.716;6.696;2023-04-24T08:57:37;9.90;99.90
65692;DHT22;52411;52.716;6.696;2023-04-24T09:00:06;9.70;99.90
65692;DHT22;52411;52.716;6.696;2023-04-24T09:02:33;9.70;99.90
65692;DHT22;52411;52.716;6.696;2023-04-24T09:04:59;9.70;99.90
65692;DHT22;52411;52.716;6.696;2023-04-24T09:07:25;9.60;99.90
65692;DHT22;52411;52.716;6.696;2023-04-24T09:09:52;9.60;99.90
65692;DHT22;52411;52.716;6.696;2023-04-24T09:12:18;9.60;99.90
65692;DHT22;52411;52.716;6.696;2023-04-24T09:14:44;9.60;99.90
65692;DHT22;52411;52.716;6.696;2023-04-24T09:17:10;9.50;99.90
65692;DHT22;52411;52.716;6.696;2023-04-24T09:19:36;9.40;99.90
65692;DHT22;52411;52.716;6.696;2023-04-24T09:22:05;9.40;99.90
65692;DHT22;52411;52.716;6.696;2023-04-24T09:24:31;9.40;99.90
65692;DHT22;52411;52.716;6.696;2023-04-24T09:26:57;9.30;99.90
65692;DHT22;52411;52.716;6.696;2023-04-24T09:29:29;9.30;99.90
65692;DHT22;52411;52.716;6.696;2023-04-24T09:31:55;9.30;99.90
65692;DHT22;52411;52.716;6.696;2023-04-24T09:34:24;9.20;99.90
65692;DHT22;52411;52.716;6.696;2023-04-24T09:36:50;9.20;99.90
65692;DHT22;52411;52.716;6.696;2023-04-24T09:39:17;9.20;99.90
65692;DHT22;52411;52.716;6.696;2023-04-24T09:41:53;9.20;99.90
65692;DHT22;52411;52.716;6.696;2023-04-24T09:44:22;9.20;99.90
65692;DHT22;52411;52.716;6.696;2023-04-24T09:46:52;9.20;99.90
65692;DHT22;52411;52.716;6.696;2023-04-24T09:49:25;9.30;99.90
65692;DHT22;52411;52.716;6.696;2023-04-24T09:51:51;9.30;99.90
65692;DHT22;52411;52.716;6.696;2023-04-24T09:54:17;9.30;99.90
65692;DHT22;52411;52.716;6.696;2023-04-24T09:56:44;9.30;99.90
65692;DHT22;52411;52.716;6.696;2023-04-24T09:59:10;9.20;99.90
65692;DHT22;52411;52.716;6.696;2023-04-24T10:01:36;9.20;99.90
65692;DHT22;52411;52.716;6.696;2023-04-24T10:04:03;9.20;99.90
65692;DHT22;52411;52.716;6.696;2023-04-24T10:06:35;9.20;99.90
65692;DHT22;52411;52.716;6.696;2023-04-24T10:09:01;9.10;99.90
65692;DHT22;52411;52.716;6.696;2023-04-24T10:11:27;9.10;99.90
65692;DHT22;52411;52.716;6.696;2023-04-24T10:13:53;9.20;99.90
65692;DHT22;52411;52.716;6.696;2023-04-24T10:16:19;9.20;99.90
65692;DHT22;52411;52.716;6.696;2023-04-24T10:18:45;9.30;99.90
65692;DHT22;52411;52.716;6.696;2023-04-24T10:21:10;9.40;99.90
65692;DHT22;52411;52.716;6.696;2023-04-24T10:23:36;9.50;99.90
65692;DHT22;52411;52.716;6.696;2023-04-24T10:26:02;9.60;99.90
65692;DHT22;52411;52.716;6.696;2023-04-24T10:28:28;9.60;99.90
65692;DHT22;52411;52.716;6.696;2023-04-24T10:30:54;9.70;99.90
65692;DHT22;52411;52.716;6.696;2023-04-24T10:33:21;9.60;99.90
65692;DHT22;52411;52.716;6.696;2023-04-24T10:35:48;9.50;99.90
65692;DHT22;52411;52.716;6.696;2023-04-24T10:38:21;9.40;99.90
65692;DHT22;52411;52.716;6.696;2023-04-24T10:40:50;9.40;99.90
65692;DHT22;52411;52.716;6.696;2023-04-24T10:43:16;9.30;99.90
65692;DHT22;52411;52.716;6.696;2023-04-24T10:45:42;9.10;99.90
65692;DHT22;52411;52.716;6.696;2023-04-24T10:48:26;8.90;99.90
65692;DHT22;52411;52.716;6.696;2023-04-24T10:50:52;8.80;99.90
65692;DHT22;52411;52.716;6.696;2023-04-24T10:53:18;8.80;99.90
65692;DHT22;52411;52.716;6.696;2023-04-24T10:55:50;8.80;99.90
65692;DHT22;52411;52.716;6.696;2023-04-24T10:58:16;8.80;99.90
65692;DHT22;52411;52.716;6.696;2023-04-24T11:00:55;8.80;99.90
65692;DHT22;52411;52.716;6.696;2023-04-24T11:03:25;8.80;99.90
65692;DHT22;52411;52.716;6.696;2023-04-24T11:06:12;9.00;99.90
65692;DHT22;52411;52.716;6.696;2023-04-24T11:08:43;9.10;99.90
65692;DHT22;52411;52.716;6.696;2023-04-24T11:11:16;9.20;99.90
65692;DHT22;52411;52.716;6.696;2023-04-24T11:16:20;9.40;99.90
65692;DHT22;52411;52.716;6.696;2023-04-24T11:18:50;9.40;99.90
65692;DHT22;52411;52.716;6.696;2023-04-24T11:21:18;9.50;99.90
65692;DHT22;52411;52.716;6.696;2023-04-24T11:23:44;9.60;99.90
65692;DHT22;52411;52.716;6.696;2023-04-24T11:26:17;9.70;99.90
65692;DHT22;52411;52.716;6.696;2023-04-24T11:28:44;9.80;99.90
65692;DHT22;52411;52.716;6.696;2023-04-24T11:33:53;9.90;99.90
65692;DHT22;52411;52.716;6.696;2023-04-24T11:36:20;9.90;99.90
65692;DHT22;52411;52.716;6.696;2023-04-24T11:38:46;9.90;99.90
65692;DHT22;52411;52.716;6.696;2023-04-24T11:41:12;9.80;99.90
65692;DHT22;52411;52.716;6.696;2023-04-24T11:43:38;9.80;99.90
65692;DHT22;52411;52.716;6.696;2023-04-24T11:46:04;9.70;99.90
65692;DHT22;52411;52.716;6.696;2023-04-24T11:48:30;9.70;99.90
65692;DHT22;52411;52.716;6.696;2023-04-24T11:51:01;9.70;99.90
65692;DHT22;52411;52.716;6.696;2023-04-24T11:53:27;9.70;99.90
65692;DHT22;52411;52.716;6.696;2023-04-24T11:55:53;9.70;99.90
65692;DHT22;52411;52.716;6.696;2023-04-24T11:58:20;9.70;99.90
65692;DHT22;52411;52.716;6.696;2023-04-24T12:00:53;9.80;99.90
65692;DHT22;52411;52.716;6.696;2023-04-24T12:03:20;9.90;99.90
65692;DHT22;52411;52.716;6.696;2023-04-24T12:05:46;10.00;99.90
65692;DHT22;52411;52.716;6.696;2023-04-24T12:08:11;10.10;99.90
65692;DHT22;52411;52.716;6.696;2023-04-24T12:10:37;10.10;99.90
65692;DHT22;52411;52.716;6.696;2023-04-24T12:13:02;10.20;99.90
65692;DHT22;52411;52.716;6.696;2023-04-24T12:15:28;10.20;99.90
65692;DHT22;52411;52.716;6.696;2023-04-24T12:17:54;10.10;99.90
65692;DHT22;52411;52.716;6.696;2023-04-24T12:22:55;10.00;99.90
65692;DHT22;52411;52.716;6.696;2023-04-24T12:25:21;9.90;99.90
65692;DHT22;52411;52.716;6.696;2023-04-24T12:27:52;10.00;99.90
65692;DHT22;52411;52.716;6.696;2023-04-24T12:30:18;10.00;99.90
65692;DHT22;52411;52.716;6.696;2023-04-24T12:32:47;10.00;99.90
65692;DHT22;52411;52.716;6.696;2023-04-24T12:35:13;10.00;99.90
65692;DHT22;52411;52.716;6.696;2023-04-24T12:37:41;9.90;99.90
65692;DHT22;52411;52.716;6.696;2023-04-24T12:40:11;9.90;99.90
65692;DHT22;52411;52.716;6.696;2023-04-24T12:42:44;9.80;99.90
65692;DHT22;52411;52.716;6.696;2023-04-24T12:45:10;9.80;99.90
65692;DHT22;52411;52.716;6.696;2023-04-24T12:47:37;9.90;99.90
65692;DHT22;52411;52.716;6.696;2023-04-24T12:50:03;9.80;99.90
65692;DHT22;52411;52.716;6.696;2023-04-24T12:52:29;9.80;99.90
65692;DHT22;52411;52.716;6.696;2023-04-24T12:54:56;9.60;99.90
65692;DHT22;52411;52.716;6.696;2023-04-24T12:57:22;9.50;99.90
65692;DHT22;52411;52.716;6.696;2023-04-24T12:59:48;9.50;99.90
65692;DHT22;52411;52.716;6.696;2023-04-24T13:02:13;9.70;99.90
65692;DHT22;52411;52.716;6.696;2023-04-24T13:04:46;9.80;99.90
65692;DHT22;52411;52.716;6.696;2023-04-24T13:07:12;9.90;99.90
65692;DHT22;52411;52.716;6.696;2023-04-24T13:09:38;9.90;99.90
65692;DHT22;52411;52.716;6.696;2023-04-24T13:12:03;9.90;99.90
65692;DHT22;52411;52.716;6.696;2023-04-24T13:14:31;9.90;99.90
65692;DHT22;52411;52.716;6.696;2023-04-24T13:16:56;9.90;99.90
65692;DHT22;52411;52.716;6.696;2023-04-24T13:19:23;9.90;99.90
65692;DHT22;52411;52.716;6.696;2023-04-24T13:21:49;9.80;99.90
65692;DHT22;52411;52.716;6.696;2023-04-24T13:24:15;9.70;99.90
65692;DHT22;52411;52.716;6.696;2023-04-24T13:26:41;9.70;99.90
65692;DHT22;52411;52.716;6.696;2023-04-24T13:29:06;9.60;99.90
65692;DHT22;52411;52.716;6.696;2023-04-24T13:31:32;9.60;99.90
65692;DHT22;52411;52.716;6.696;2023-04-24T13:33:57;9.60;99.90
65692;DHT22;52411;52.716;6.696;2023-04-24T13:36:23;9.50;99.90
65692;DHT22;52411;52.716;6.696;2023-04-24T13:38:48;9.50;99.90
65692;DHT22;52411;52.716;6.696;2023-04-24T13:41:14;9.50;99.90
65692;DHT22;52411;52.716;6.696;2023-04-24T13:43:39;9.50;99.90
65692;DHT22;52411;52.716;6.696;2023-04-24T13:46:07;9.50;99.90
65692;DHT22;52411;52.716;6.696;2023-04-24T13:48:33;9.50;99.90
65692;DHT22;52411;52.716;6.696;2023-04-24T13:50:58;9.50;99.90
65692;DHT22;52411;52.716;6.696;2023-04-24T13:53:24;9.50;99.90
65692;DHT22;52411;52.716;6.696;2023-04-24T13:55:49;9.50;99.90
65692;DHT22;52411;52.716;6.696;2023-04-24T13:58:14;9.60;99.90
65692;DHT22;52411;52.716;6.696;2023-04-24T14:00:40;9.70;99.90
65692;DHT22;52411;52.716;6.696;2023-04-24T14:03:05;9.70;99.90
65692;DHT22;52411;52.716;6.696;2023-04-24T14:05:31;9.70;99.90
65692;DHT22;52411;52.716;6.696;2023-04-24T14:07:56;9.70;99.90
65692;DHT22;52411;52.716;6.696;2023-04-24T14:10:22;9.70;99.90
65692;DHT22;52411;52.716;6.696;2023-04-24T14:12:47;9.70;99.90
65692;DHT22;52411;52.716;6.696;2023-04-24T14:15:13;9.60;99.90
65692;DHT22;52411;52.716;6.696;2023-04-24T14:17:39;9.50;99.90
65692;DHT22;52411;52.716;6.696;2023-04-24T14:20:05;9.20;99.90
65692;DHT22;52411;52.716;6.696;2023-04-24T14:22:30;8.90;99.90
65692;DHT22;52411;52.716;6.696;2023-04-24T14:24:56;8.80;99.90
65692;DHT22;52411;52.716;6.696;2023-04-24T14:27:21;8.70;99.90
65692;DHT22;52411;52.716;6.696;2023-04-24T14:29:47;8.60;99.90
65692;DHT22;52411;52.716;6.696;2023-04-24T14:32:12;8.60;99.90
65692;DHT22;52411;52.716;6.696;2023-04-24T14:34:40;8.60;99.90
65692;DHT22;52411;52.716;6.696;2023-04-24T14:37:05;8.70;99.90
65692;DHT22;52411;52.716;6.696;2023-04-24T14:39:31;8.70;99.90
65692;DHT22;52411;52.716;6.696;2023-04-24T14:41:56;8.80;99.90
65692;DHT22;52411;52.716;6.696;2023-04-24T14:44:22;8.80;99.90
65692;DHT22;52411;52.716;6.696;2023-04-24T14:46:48;8.80;99.90
65692;DHT22;52411;52.716;6.696;2023-04-24T14:49:13;8.80;99.90
65692;DHT22;52411;52.716;6.696;2023-04-24T14:51:39;8.90;99.90
65692;DHT22;52411;52.716;6.696;2023-04-24T14:54:07;9.00;99.90
65692;DHT22;52411;52.716;6.696;2023-04-24T14:56:32;9.20;99.90
65692;DHT22;52411;52.716;6.696;2023-04-24T14:58:58;9.40;99.90
65692;DHT22;52411;52.716;6.696;2023-04-24T15:01:23;9.50;99.90
65692;DHT22;52411;52.716;6.696;2023-04-24T15:03:51;9.50;99.90
65692;DHT22;52411;52.716;6.696;2023-04-24T15:06:17;9.70;99.90
65692;DHT22;52411;52.716;6.696;2023-04-24T15:08:42;9.70;99.90
65692;DHT22;52411;52.716;6.696;2023-04-24T15:11:08;9.60;99.90
65692;DHT22;52411;52.716;6.696;2023-04-24T15:13:34;9.50;99.90
65692;DHT22;52411;52.716;6.696;2023-04-24T15:16:00;9.40;99.90
65692;DHT22;52411;52.716;6.696;2023-04-24T15:18:25;9.40;99.90
65692;DHT22;52411;52.716;6.696;2023-04-24T15:20:52;9.40;99.90
65692;DHT22;52411;52.716;6.696;2023-04-24T15:23:18;9.40;99.90
65692;DHT22;52411;52.716;6.696;2023-04-24T15:25:43;9.50;99.90
65692;DHT22;52411;52.716;6.696;2023-04-24T15:28:09;9.50;99.90
65692;DHT22;52411;52.716;6.696;2023-04-24T15:30:34;9.50;99.90
65692;DHT22;52411;52.716;6.696;2023-04-24T15:33:00;9.60;99.90
65692;DHT22;52411;52.716;6.696;2023-04-24T15:35:26;9.60;99.90
65692;DHT22;52411;52.716;6.696;2023-04-24T15:37:52;9.70;99.90
65692;DHT22;52411;52.716;6.696;2023-04-24T15:40:17;9.70;99.90
65692;DHT22;52411;52.716;6.696;2023-04-24T15:42:43;9.70;99.90
65692;DHT22;52411;52.716;6.696;2023-04-24T15:45:09;9.60;99.90